Time;durP1;ratioP1;P1;durP2;ratioP2;P2;SDS_P1;SDS_P2;PMS_P1;PMS_P2;Temp;Humidity;BMP_temperature;BMP_pressure;BME280_temperature;BME280_humidity;BME280_pressure;Samples;Min_cycle;Max_cycle;Signal;HPM_P1;HPM_P2
2021/12/27 00:04:44;;;;;;;39.17;16.43;;;;;;;-1.49;81.58;99358.09;8541529;33;20471;-78
2021/12/27 00:09:48;;;;;;;40.97;17.50;;;;;;;-1.48;81.55;99349.25;8547304;33;20392;-78
2021/12/27 00:14:51;;;;;;;37.37;16.20;;;;;;;-1.53;81.75;99343.41;8552859;33;20416;-78
2021/12/27 00:19:56;;;;;;;40.57;19.33;;;;;;;-1.45;81.63;99339.47;8546820;33;20917;-78
2021/12/27 00:24:59;;;;;;;38.93;18.10;;;;;;;-1.37;81.78;99347.00;8543726;33;20539;-78
2021/12/27 00:30:03;;;;;;;39.43;17.73;;;;;;;-1.42;81.89;99330.56;8543360;33;20478;-78
2021/12/27 00:35:09;;;;;;;45.03;22.93;;;;;;;-1.20;81.06;99328.56;8528134;33;20448;-78
2021/12/27 00:40:13;;;;;;;40.10;18.97;;;;;;;-1.03;80.44;99318.97;8559882;33;20133;-78
2021/12/27 00:45:16;;;;;;;38.37;17.87;;;;;;;-1.01;80.61;99320.59;8559809;33;20172;-78
2021/12/27 00:50:21;;;;;;;40.83;18.07;;;;;;;-1.03;80.72;99311.91;8550916;33;20456;-78
2021/12/27 00:55:24;;;;;;;40.57;17.30;;;;;;;-1.00;80.36;99305.63;8550087;33;20296;-77
2021/12/27 01:00:28;;;;;;;38.83;19.17;;;;;;;-0.94;80.31;99294.78;8554104;33;20416;-78
2021/12/27 01:05:33;;;;;;;44.50;17.80;;;;;;;-0.95;80.09;99291.28;8529403;33;20439;-78
2021/12/27 01:16:10;;;;;;;39.13;19.83;;;;;;;-1.14;80.76;99289.66;8545635;33;20499;-78
2021/12/27 01:21:20;;;;;;;44.43;19.63;;;;;;;-1.31;81.14;99294.00;8544794;33;20409;-78
2021/12/27 01:26:25;;;;;;;33.87;13.40;;;;;;;-1.17;81.37;99299.44;8548896;33;20141;-78
2021/12/27 01:31:29;;;;;;;45.17;19.87;;;;;;;-1.17;81.41;99296.78;8533876;33;20483;-78
2021/12/27 01:36:34;;;;;;;37.37;19.30;;;;;;;-1.23;81.36;99291.84;8540945;33;21118;-78
2021/12/27 01:41:37;;;;;;;47.67;19.63;;;;;;;-1.05;80.93;99294.47;8535795;33;20145;-78
2021/12/27 01:46:40;;;;;;;40.90;19.27;;;;;;;-1.00;81.23;99287.19;8506670;33;20518;-78
2021/12/27 01:51:46;;;;;;;43.37;18.37;;;;;;;-0.81;80.62;99292.38;8533484;33;20441;-78
2021/12/27 01:56:51;;;;;;;40.23;20.20;;;;;;;-0.77;80.79;99278.97;8536193;33;20211;-78
2021/12/27 02:01:57;;;;;;;43.33;19.47;;;;;;;-0.71;80.63;99288.34;8534499;33;20211;-78
2021/12/27 02:07:02;;;;;;;47.27;18.60;;;;;;;-0.65;80.80;99284.53;8535092;33;20770;-78
2021/12/27 02:12:06;;;;;;;47.10;19.60;;;;;;;-0.71;80.93;99272.50;8535098;33;20144;-78
2021/12/27 02:17:09;;;;;;;48.93;20.33;;;;;;;-0.75;80.85;99271.81;8533526;33;20405;-78
2021/12/27 02:22:14;;;;;;;42.57;19.40;;;;;;;-0.57;80.79;99279.69;8532639;33;21092;-78
2021/12/27 02:27:17;;;;;;;47.27;20.00;;;;;;;-0.53;80.77;99281.22;8535855;33;20199;-78
2021/12/27 02:32:20;;;;;;;42.30;20.13;;;;;;;-0.50;80.77;99279.28;8538966;33;20454;-78
2021/12/27 02:37:25;;;;;;;43.10;19.20;;;;;;;-0.52;80.74;99267.97;8537556;33;20498;-78
2021/12/27 02:42:28;;;;;;;46.67;20.33;;;;;;;-0.51;80.78;99263.53;8534738;33;20134;-78
2021/12/27 02:47:31;;;;;;;46.23;20.93;;;;;;;-0.40;80.69;99253.25;8530347;33;20136;-78
2021/12/27 02:52:35;;;;;;;44.40;18.77;;;;;;;-0.48;80.72;99254.63;8540027;33;20590;-77
2021/12/27 02:57:38;;;;;;;44.37;19.77;;;;;;;-0.50;80.91;99246.78;8548170;33;20918;-78
2021/12/27 03:02:41;;;;;;;45.47;19.20;;;;;;;-0.42;80.83;99234.03;8536680;33;20447;-77
2021/12/27 03:07:48;;;;;;;44.87;18.67;;;;;;;-0.45;81.72;99242.09;8531646;33;20639;-78
2021/12/27 03:12:53;;;;;;;43.07;18.47;;;;;;;-0.50;81.94;99241.50;8531943;33;20140;-77
2021/12/27 03:17:57;;;;;;;40.77;18.83;;;;;;;-0.48;81.97;99244.91;8530805;33;20188;-78
2021/12/27 03:36:00;;;;;;;44.93;19.83;;;;;;;-0.44;82.90;99222.69;8557423;33;20419;-78
2021/12/27 03:41:59;;;;;;;45.90;19.90;;;;;;;-0.46;82.78;99224.59;8549404;33;20460;-79
2021/12/27 03:47:30;;;;;;;49.20;18.87;;;;;;;-0.48;83.04;99229.09;8515083;33;20228;-79
2021/12/27 03:52:58;;;;;;;41.77;19.77;;;;;;;-0.51;83.27;99224.81;8535437;33;20439;-78
2021/12/27 04:04:48;;;;;;;45.93;20.23;;;;;;;-0.66;83.14;99201.03;8502652;33;20133;-78
2021/12/27 04:09:51;;;;;;;47.90;20.63;;;;;;;-0.53;82.98;99196.81;8540384;33;20699;-78
2021/12/27 04:14:55;;;;;;;44.53;20.63;;;;;;;-0.53;82.79;99194.19;8552194;33;20141;-78
2021/12/27 04:19:59;;;;;;;49.23;20.50;;;;;;;-0.50;82.60;99189.56;8549616;33;20503;-78
2021/12/27 04:25:03;;;;;;;48.87;21.10;;;;;;;-0.49;82.09;99182.53;8549876;33;20130;-78
2021/12/27 04:30:12;;;;;;;46.53;20.90;;;;;;;-0.44;82.28;99187.53;8550034;33;20215;-78
2021/12/27 04:35:16;;;;;;;40.90;18.63;;;;;;;-0.34;81.59;99188.75;8550018;33;20546;-78
2021/12/27 04:40:23;;;;;;;41.33;19.13;;;;;;;-0.36;81.97;99186.19;8531474;33;20429;-78
2021/12/27 04:45:32;;;;;;;43.00;19.80;;;;;;;-0.26;81.45;99183.06;8558448;33;20125;-77
2021/12/27 04:50:52;;;;;;;46.63;21.53;;;;;;;-0.33;81.53;99170.22;8532417;33;20506;-78
2021/12/27 04:55:57;;;;;;;47.47;21.13;;;;;;;-0.20;81.39;99174.78;8555085;33;20427;-78
2021/12/27 05:01:02;;;;;;;48.73;19.80;;;;;;;-0.15;81.10;99167.47;8508577;33;20427;-78
2021/12/27 05:06:06;;;;;;;42.53;19.37;;;;;;;-0.20;81.73;99165.06;8531532;33;20133;-78
2021/12/27 05:11:10;;;;;;;43.67;20.10;;;;;;;-0.12;80.99;99159.38;8556654;33;20538;-79
2021/12/27 05:16:15;;;;;;;44.70;20.23;;;;;;;-0.19;81.19;99152.72;8554907;33;20523;-78
2021/12/27 05:21:19;;;;;;;42.13;18.77;;;;;;;-0.14;81.33;99140.13;8556229;33;20248;-78
2021/12/27 05:26:22;;;;;;;41.43;17.90;;;;;;;-0.17;81.33;99142.94;8531841;33;20141;-78
2021/12/27 05:31:27;;;;;;;42.90;19.63;;;;;;;-0.14;81.43;99141.00;8529820;33;20956;-78
2021/12/27 05:36:31;;;;;;;41.33;19.30;;;;;;;-0.08;81.20;99140.66;8528050;33;20141;-78
2021/12/27 05:41:34;;;;;;;44.27;19.57;;;;;;;-0.29;81.73;99141.84;8523285;33;20421;-78
2021/12/27 05:46:39;;;;;;;42.17;18.53;;;;;;;-0.15;81.69;99128.72;8544106;33;20414;-78
2021/12/27 05:51:43;;;;;;;38.23;17.43;;;;;;;-0.06;81.01;99130.81;8541015;33;20437;-78
2021/12/27 05:56:46;;;;;;;38.77;18.60;;;;;;;-0.08;81.26;99126.59;8551205;33;20149;-77
2021/12/27 06:01:51;;;;;;;40.93;19.13;;;;;;;-0.07;81.65;99121.22;8549422;33;20442;-79
2021/12/27 06:06:55;;;;;;;39.00;18.17;;;;;;;-0.09;81.55;99111.69;8546479;33;20140;-79
2021/12/27 06:11:58;;;;;;;42.13;20.53;;;;;;;-0.11;82.14;99116.19;8543446;33;20424;-77
2021/12/27 06:17:03;;;;;;;47.23;19.60;;;;;;;-0.08;81.76;99119.53;8545081;33;20894;-77
2021/12/27 06:22:09;;;;;;;41.33;20.50;;;;;;;-0.10;82.03;99112.63;8547247;33;20421;-77
2021/12/27 06:27:12;;;;;;;41.20;19.17;;;;;;;-0.01;81.77;99122.66;8550028;33;20311;-77
2021/12/27 06:32:16;;;;;;;42.13;18.77;;;;;;;-0.00;81.69;99120.84;8551085;33;20145;-77
2021/12/27 06:37:49;;;;;;;41.13;18.23;;;;;;;-0.02;81.71;99128.88;8518635;33;20404;-79
2021/12/27 06:43:27;;;;;;;41.90;17.67;;;;;;;-0.01;82.13;99117.38;8544215;33;20463;-78
2021/12/27 06:49:19;;;;;;;43.33;18.50;;;;;;;-0.04;82.82;99119.34;8544708;33;20136;-78
2021/12/27 06:54:22;;;;;;;39.87;18.40;;;;;;;-0.07;82.81;99112.44;8548182;33;20410;-78
2021/12/27 06:59:26;;;;;;;46.97;19.60;;;;;;;-0.11;83.34;99111.78;8551979;33;20414;-77
2021/12/27 07:04:31;;;;;;;42.67;19.13;;;;;;;-0.06;83.64;99109.69;8545002;33;20137;-79
2021/12/27 07:09:34;;;;;;;42.90;19.27;;;;;;;-0.07;83.67;99109.81;8544251;33;20224;-79
2021/12/27 07:14:37;;;;;;;46.00;19.83;;;;;;;-0.08;84.11;99108.13;8543778;33;20618;-77
2021/12/27 07:20:10;;;;;;;45.27;20.10;;;;;;;-0.04;84.38;99103.50;8541984;33;20156;-77
2021/12/27 07:25:17;;;;;;;45.67;21.00;;;;;;;-0.11;84.69;99093.31;8547245;33;20429;-80
2021/12/27 07:30:20;;;;;;;47.87;21.60;;;;;;;-0.11;84.93;99116.19;8553946;33;20626;-78
2021/12/27 07:35:26;;;;;;;45.00;20.23;;;;;;;-0.16;84.87;99121.75;8553677;33;20141;-78
2021/12/27 07:40:29;;;;;;;45.73;18.27;;;;;;;0.02;85.21;99126.91;8528279;33;20463;-78
2021/12/27 07:45:33;;;;;;;43.83;19.93;;;;;;;0.04;85.24;99119.75;8551734;33;20415;-77
2021/12/27 07:50:38;;;;;;;44.67;19.90;;;;;;;0.11;84.79;99116.69;8548183;33;20437;-78
2021/12/27 07:55:41;;;;;;;28.63;13.63;;;;;;;0.20;85.35;99111.81;8539238;33;20412;-78
2021/12/27 08:00:49;;;;;;;83.38;27.38;;;;;;;0.55;85.18;99107.03;8510098;33;20141;-77
2021/12/27 08:05:54;;;;;;;52.35;21.20;;;;;;;0.69;84.36;99103.59;8537291;33;20140;-79
2021/12/27 08:10:59;;;;;;;42.70;19.92;;;;;;;0.71;83.89;99107.81;8544048;33;20477;-79
2021/12/27 08:16:02;;;;;;;30.50;16.00;;;;;;;0.86;83.69;99107.84;8547329;33;20652;-79
2021/12/27 08:21:06;;;;;;;29.05;13.73;;;;;;;1.06;83.80;99102.19;8551933;33;20474;-80
2021/12/27 08:26:10;;;;;;;27.65;15.52;;;;;;;1.08;82.94;99099.44;8551534;33;20418;-78
2021/12/27 08:31:13;;;;;;;25.25;13.80;;;;;;;1.17;82.35;99101.50;8548816;33;20301;-78
2021/12/27 08:36:19;;;;;;;30.33;14.73;;;;;;;0.92;81.80;99100.38;8546812;33;20155;-79
2021/12/27 08:41:35;;;;;;;31.05;15.82;;;;;;;0.95;82.12;99102.84;8549206;33;20420;-80
2021/12/27 08:46:43;;;;;;;28.80;15.02;;;;;;;0.95;82.16;99105.47;8553091;33;20153;-78
2021/12/27 08:51:48;;;;;;;31.73;14.97;;;;;;;1.06;82.33;99102.19;8552497;33;20411;-78
2021/12/27 08:56:51;;;;;;;34.45;15.93;;;;;;;1.03;82.23;99107.66;8552311;33;20645;-78
2021/12/27 09:01:54;;;;;;;34.67;16.10;;;;;;;1.05;82.12;99108.41;8552273;33;20659;-77
2021/12/27 09:06:59;;;;;;;33.00;14.90;;;;;;;1.06;81.89;99107.47;8553760;33;20448;-78
2021/12/27 09:12:02;;;;;;;35.53;16.77;;;;;;;1.03;82.25;99105.84;8552250;33;20528;-78
2021/12/27 09:17:05;;;;;;;34.15;16.25;;;;;;;0.89;82.41;99108.50;8549283;33;20431;-78
2021/12/27 09:22:13;;;;;;;37.03;16.13;;;;;;;1.08;82.52;99099.44;8549974;33;20424;-79
2021/12/27 09:27:16;;;;;;;37.70;16.37;;;;;;;0.98;83.19;99105.28;8545579;33;20482;-79
2021/12/27 09:32:19;;;;;;;31.98;17.55;;;;;;;1.03;83.20;99111.16;8540648;33;20425;-77
2021/12/27 09:37:24;;;;;;;34.77;15.87;;;;;;;1.09;83.29;99109.91;8541663;33;20489;-77
2021/12/27 09:42:29;;;;;;;31.48;15.48;;;;;;;1.16;83.12;99108.59;8545506;33;20129;-79
2021/12/27 09:47:32;;;;;;;31.58;15.43;;;;;;;1.26;82.71;99101.78;8542833;33;20149;-78
2021/12/27 09:52:53;;;;;;;37.13;16.27;;;;;;;1.29;82.46;99098.09;8540075;33;20521;-78
2021/12/27 09:57:56;;;;;;;34.40;16.63;;;;;;;1.35;82.40;99087.13;8533828;33;20683;-77
2021/12/27 10:03:03;;;;;;;35.75;15.88;;;;;;;1.45;82.00;99071.50;8535046;33;20421;-78
2021/12/27 10:08:08;;;;;;;29.52;14.52;;;;;;;1.54;82.14;99072.69;8537816;33;20136;-78
2021/12/27 10:13:11;;;;;;;29.50;14.95;;;;;;;1.66;82.04;99066.63;8537699;33;21141;-79
2021/12/27 10:18:16;;;;;;;30.85;15.25;;;;;;;1.78;81.70;99062.31;8538808;33;20416;-77
2021/12/27 10:23:21;;;;;;;29.00;13.75;;;;;;;1.82;81.14;99061.19;8538324;33;20433;-78
2021/12/27 10:28:26;;;;;;;32.53;15.63;;;;;;;1.85;81.07;99047.75;8533036;33;20121;-78
2021/12/27 10:33:33;;;;;;;25.15;14.18;;;;;;;1.95;80.59;99038.25;8532235;33;20150;-78
2021/12/27 10:38:40;;;;;;;24.17;13.77;;;;;;;2.21;80.60;99033.81;8533388;33;20137;-78
2021/12/27 10:43:46;;;;;;;29.23;14.25;;;;;;;2.33;80.11;99037.44;8538479;33;20191;-77
2021/12/27 10:49:09;;;;;;;29.30;14.93;;;;;;;2.13;79.61;99055.53;8544541;33;20227;-78
2021/12/27 10:54:13;;;;;;;26.70;14.77;;;;;;;2.09;79.91;99034.66;8541249;33;20144;-78
2021/12/27 10:59:20;;;;;;;27.83;14.52;;;;;;;2.10;79.98;99039.00;8536486;33;20212;-78
2021/12/27 11:04:23;;;;;;;28.10;14.27;;;;;;;2.27;80.32;99022.78;8555174;33;20230;-80
2021/12/27 11:09:27;;;;;;;28.73;13.82;;;;;;;2.41;79.33;99016.53;8553350;33;20129;-77
2021/12/27 11:14:31;;;;;;;26.40;13.82;;;;;;;2.48;78.93;99006.38;8548576;33;20428;-78
2021/12/27 11:19:34;;;;;;;24.15;12.82;;;;;;;2.63;78.73;98993.88;8523007;33;20161;-78
2021/12/27 11:24:42;;;;;;;26.85;14.50;;;;;;;2.97;77.61;98998.50;8512528;33;20152;-79
2021/12/27 11:30:07;;;;;;;28.13;13.00;;;;;;;3.03;77.35;98997.22;8529606;33;20149;-77
2021/12/27 11:35:18;;;;;;;22.30;11.35;;;;;;;3.14;76.31;98999.09;8536786;33;20459;-78
2021/12/27 11:40:23;;;;;;;23.15;12.15;;;;;;;3.49;75.47;98996.53;8511963;33;20415;-81
2021/12/27 11:45:39;;;;;;;21.52;11.80;;;;;;;3.42;75.57;98979.34;8562725;33;20114;-78
2021/12/27 11:51:11;;;;;;;18.10;9.85;;;;;;;3.45;75.33;99001.19;8562458;33;20198;-80
2021/12/27 11:56:42;;;;;;;17.70;10.50;;;;;;;3.12;76.46;98993.88;8538366;33;20411;-80
2021/12/27 12:01:45;;;;;;;17.05;10.65;;;;;;;3.39;76.52;98987.53;8537204;33;20450;-78
2021/12/27 12:06:49;;;;;;;20.88;10.70;;;;;;;3.31;75.92;98985.44;8537833;33;20842;-78
2021/12/27 12:12:05;;;;;;;26.00;13.52;;;;;;;3.32;76.53;98988.94;8527461;33;20458;-76
2021/12/27 12:17:12;;;;;;;19.33;10.40;;;;;;;3.39;76.33;98983.06;8541242;33;20741;-78
2021/12/27 12:22:38;;;;;;;23.90;11.82;;;;;;;3.30;76.61;99001.50;8532456;33;20157;-80
2021/12/27 12:27:59;;;;;;;24.75;11.32;;;;;;;3.44;76.55;98996.00;8534580;33;20283;-79
2021/12/27 12:33:06;;;;;;;26.02;10.90;;;;;;;3.48;75.93;98994.81;8537568;33;21082;-79
2021/12/27 12:38:17;;;;;;;21.65;10.00;;;;;;;3.60;75.78;98982.47;8548353;33;20415;-79
2021/12/27 12:43:39;;;;;;;17.77;9.57;;;;;;;3.40;76.38;98976.81;8558691;33;20419;-79
2021/12/27 12:48:43;;;;;;;18.85;9.73;;;;;;;3.49;76.36;98972.63;8535418;33;20412;-77
2021/12/27 12:53:46;;;;;;;17.45;9.68;;;;;;;3.89;76.28;98965.16;8525904;33;20145;-78
2021/12/27 12:58:50;;;;;;;22.40;11.27;;;;;;;4.83;74.53;98944.59;8546294;33;20145;-78
2021/12/27 13:03:57;;;;;;;23.95;12.73;;;;;;;6.12;69.58;98924.16;8511958;33;20449;-80
2021/12/27 13:09:02;;;;;;;33.08;16.80;;;;;;;5.99;67.64;98922.66;8535035;33;20239;-78
2021/12/27 13:14:07;;;;;;;18.30;10.02;;;;;;;5.48;68.04;98940.22;8511058;33;20423;-79
2021/12/27 13:19:10;;;;;;;20.10;11.00;;;;;;;4.56;71.53;98929.88;8532121;33;20501;-78
2021/12/27 13:24:13;;;;;;;20.10;9.88;;;;;;;4.28;72.72;98933.84;8538743;33;20441;-78
2021/12/27 13:29:19;;;;;;;17.73;9.35;;;;;;;3.84;73.32;98934.59;8537428;33;20198;-77
2021/12/27 13:34:23;;;;;;;18.77;10.68;;;;;;;3.39;75.08;98934.44;8517045;33;20449;-77
2021/12/27 13:39:29;;;;;;;18.42;10.15;;;;;;;3.13;76.35;98918.66;8540298;33;20137;-78
2021/12/27 13:44:36;;;;;;;20.08;10.68;;;;;;;2.91;78.27;98923.81;8534879;33;20451;-79
2021/12/27 13:49:41;;;;;;;22.65;11.25;;;;;;;2.74;78.74;98919.72;8533360;33;20427;-77
2021/12/27 13:54:48;;;;;;;21.27;11.18;;;;;;;2.73;78.89;98910.94;8524799;33;20482;-78
2021/12/27 13:59:57;;;;;;;22.92;11.30;;;;;;;2.70;79.26;98908.50;8526915;33;20505;-77
2021/12/27 14:05:01;;;;;;;19.20;10.73;;;;;;;2.70;79.64;98907.66;8537770;33;20185;-79
2021/12/27 14:10:04;;;;;;;21.13;10.90;;;;;;;2.74;80.28;98911.78;8542178;33;20613;-79
2021/12/27 14:15:10;;;;;;;23.27;12.20;;;;;;;2.77;79.98;98916.84;8535872;33;20425;-78
2021/12/27 14:20:14;;;;;;;28.17;13.98;;;;;;;2.70;80.06;98923.56;8529517;33;20509;-80
2021/12/27 14:25:25;;;;;;;25.85;12.23;;;;;;;2.57;80.67;98927.09;8527564;33;20432;-77
2021/12/27 14:30:32;;;;;;;18.55;10.73;;;;;;;2.58;81.42;98920.00;8504696;33;20445;-79
2021/12/27 14:35:38;;;;;;;20.10;11.25;;;;;;;2.55;81.96;98920.19;8522396;33;20419;-79
2021/12/27 14:40:44;;;;;;;20.42;11.23;;;;;;;2.55;81.81;98920.19;8517175;33;20180;-77
2021/12/27 14:45:49;;;;;;;19.95;10.50;;;;;;;2.61;81.92;98904.72;8519977;33;20230;-80
2021/12/27 14:50:52;;;;;;;21.23;11.63;;;;;;;2.60;81.95;98910.97;8533542;33;20283;-77
2021/12/27 14:55:55;;;;;;;17.65;10.35;;;;;;;2.55;81.72;98913.13;8529362;33;20447;-78
2021/12/27 15:01:06;;;;;;;18.35;10.57;;;;;;;2.33;82.39;98902.28;8533136;33;20444;-78
2021/12/27 15:06:10;;;;;;;22.23;10.07;;;;;;;2.25;82.62;98913.44;8532096;33;20151;-78
2021/12/27 15:11:14;;;;;;;19.30;9.98;;;;;;;2.12;82.88;98900.19;8527432;33;20460;-79
2021/12/27 15:16:18;;;;;;;20.30;12.05;;;;;;;2.11;83.74;98916.19;8531771;33;20145;-78
2021/12/27 15:21:22;;;;;;;19.45;11.48;;;;;;;2.18;84.18;98901.56;8531144;33;20444;-81
2021/12/27 15:26:25;;;;;;;21.70;11.38;;;;;;;2.07;84.60;98893.53;8540558;33;20407;-77
2021/12/27 15:31:29;;;;;;;20.95;10.95;;;;;;;2.05;84.28;98896.28;8576268;33;20125;-79
2021/12/27 15:36:33;;;;;;;22.30;11.90;;;;;;;2.02;85.27;98908.88;8556561;33;20400;-80
2021/12/27 15:41:36;;;;;;;21.17;11.75;;;;;;;1.99;84.69;98915.25;8531033;33;20420;-79
2021/12/27 15:46:41;;;;;;;25.20;13.32;;;;;;;2.00;84.94;98926.69;8533872;33;20460;-77
2021/12/27 15:51:45;;;;;;;24.77;11.82;;;;;;;1.94;84.83;98918.19;8539150;33;20429;-77
2021/12/27 15:56:48;;;;;;;18.77;11.55;;;;;;;1.70;85.19;98906.63;8516913;33;20137;-77
2021/12/27 16:01:53;;;;;;;23.45;12.95;;;;;;;1.79;85.56;98923.72;8523054;33;20446;-77
2021/12/27 16:06:56;;;;;;;24.00;12.48;;;;;;;1.76;85.93;98922.13;8560311;33;20168;-77
2021/12/27 16:12:00;;;;;;;25.00;12.20;;;;;;;1.78;85.63;98919.34;8523130;33;20141;-77
2021/12/27 16:17:07;;;;;;;24.20;11.93;;;;;;;1.75;85.73;98919.56;8544829;33;20482;-78
2021/12/27 16:22:10;;;;;;;22.60;10.80;;;;;;;1.82;85.76;98927.00;8527109;33;20160;-77
2021/12/27 16:27:13;;;;;;;20.70;11.90;;;;;;;1.83;85.94;98919.88;8528481;33;20144;-78
2021/12/27 16:32:18;;;;;;;19.92;10.35;;;;;;;1.85;86.03;98913.53;8534950;33;20459;-77
2021/12/27 16:37:21;;;;;;;18.75;11.05;;;;;;;1.76;85.98;98914.19;8544275;33;20132;-76
2021/12/27 16:42:24;;;;;;;20.67;11.57;;;;;;;1.76;86.70;98924.78;8544030;33;20236;-76
2021/12/27 16:47:28;;;;;;;20.33;11.52;;;;;;;1.91;86.00;98913.13;8544445;33;20169;-77
2021/12/27 16:52:31;;;;;;;21.25;9.82;;;;;;;2.03;86.89;98913.22;8558774;33;21128;-76
2021/12/27 16:57:34;;;;;;;20.20;10.50;;;;;;;2.14;86.67;98918.66;8557185;33;20427;-77
2021/12/27 17:02:39;;;;;;;23.88;11.82;;;;;;;2.14;86.62;98908.06;8548794;33;20461;-79
2021/12/27 17:07:42;;;;;;;17.42;10.25;;;;;;;2.11;86.34;98902.94;8550552;33;20411;-78
2021/12/27 17:12:45;;;;;;;20.25;10.27;;;;;;;2.24;86.52;98901.13;8551328;33;20513;-80
2021/12/27 17:17:50;;;;;;;18.88;11.07;;;;;;;2.25;86.47;98894.91;8528501;33;21286;-77
2021/12/27 17:22:53;;;;;;;23.38;12.02;;;;;;;2.24;86.58;98900.28;8557686;33;20145;-78
2021/12/27 17:27:57;;;;;;;20.30;11.15;;;;;;;2.29;86.76;98899.00;8564414;33;20679;-77
2021/12/27 17:33:01;;;;;;;33.85;17.27;;;;;;;2.27;86.54;98895.63;8565544;33;20141;-78
2021/12/27 17:38:05;;;;;;;24.08;12.85;;;;;;;2.25;86.48;98892.25;8561711;33;20506;-77
2021/12/27 17:43:09;;;;;;;23.48;12.23;;;;;;;2.35;86.58;98887.97;8541287;33;20468;-77
2021/12/27 17:48:13;;;;;;;19.85;11.68;;;;;;;2.27;86.95;98892.97;8541467;33;20711;-77
2021/12/27 17:53:16;;;;;;;21.88;11.75;;;;;;;2.44;87.14;98889.16;8546113;33;20520;-76
2021/12/27 17:58:19;;;;;;;29.30;13.57;;;;;;;2.35;87.12;98893.28;8542471;33;20505;-77
2021/12/27 18:03:27;;;;;;;29.45;13.23;;;;;;;2.55;86.36;98896.34;8544235;33;20985;-78
2021/12/27 18:08:30;;;;;;;21.17;11.70;;;;;;;2.61;85.80;98893.28;8553042;33;20152;-78
2021/12/27 18:13:34;;;;;;;28.35;13.75;;;;;;;2.52;85.70;98883.28;8545911;33;20440;-79
2021/12/27 18:18:39;;;;;;;28.25;13.85;;;;;;;2.43;85.62;98883.94;8547143;33;20238;-80
2021/12/27 18:23:42;;;;;;;25.27;13.40;;;;;;;2.41;85.99;98865.47;8538491;33;20151;-79
2021/12/27 18:28:45;;;;;;;27.10;13.25;;;;;;;2.44;85.48;98860.00;8541217;33;20591;-77
2021/12/27 18:33:49;;;;;;;25.67;13.70;;;;;;;2.40;85.86;98855.84;8528491;33;20206;-77
2021/12/27 18:38:53;;;;;;;25.70;14.13;;;;;;;2.32;86.28;98850.25;8525279;33;20427;-78
2021/12/27 18:43:56;;;;;;;26.10;14.07;;;;;;;2.33;86.18;98855.47;8527792;33;20143;-77
2021/12/27 18:49:00;;;;;;;23.42;14.30;;;;;;;2.44;86.13;98869.72;8527741;33;20287;-77
2021/12/27 18:54:05;;;;;;;23.77;13.38;;;;;;;2.59;85.49;98869.50;8526999;33;20412;-77
2021/12/27 18:59:08;;;;;;;26.00;13.40;;;;;;;2.54;86.27;98854.91;8533522;33;21053;-78
2021/12/27 19:04:13;;;;;;;26.88;13.82;;;;;;;2.46;85.95;98859.88;8546806;33;20419;-79
2021/12/27 19:09:17;;;;;;;28.23;14.23;;;;;;;2.45;86.08;98869.63;8547132;33;20179;-79
2021/12/27 19:14:21;;;;;;;22.75;13.35;;;;;;;2.54;86.07;98857.53;8536839;33;20420;-80
2021/12/27 19:19:26;;;;;;;25.67;13.20;;;;;;;2.54;85.41;98863.69;8536562;33;20129;-78
2021/12/27 19:24:29;;;;;;;24.88;14.48;;;;;;;2.52;85.90;98870.03;8547210;33;20546;-79
2021/12/27 19:29:32;;;;;;;25.23;13.18;;;;;;;2.58;85.38;98869.63;8540212;33;20182;-79
2021/12/27 19:34:36;;;;;;;25.70;15.02;;;;;;;2.58;85.42;98859.88;8527638;33;21165;-80
2021/12/27 19:39:40;;;;;;;22.40;13.10;;;;;;;2.57;85.17;98852.03;8527972;33;20137;-79
2021/12/27 19:44:43;;;;;;;21.73;12.52;;;;;;;2.53;85.66;98847.88;8531036;33;20291;-80
2021/12/27 19:49:47;;;;;;;20.02;11.63;;;;;;;2.60;85.54;98844.69;8529775;33;20234;-78
2021/12/27 19:54:50;;;;;;;23.35;12.48;;;;;;;2.66;85.71;98840.75;8534734;33;20412;-79
2021/12/27 19:59:54;;;;;;;23.80;13.27;;;;;;;2.78;85.66;98842.50;8535203;33;20528;-80
2021/12/27 20:04:58;;;;;;;20.85;12.50;;;;;;;2.87;85.84;98833.03;8544899;33;20964;-79
2021/12/27 20:10:07;;;;;;;21.27;11.63;;;;;;;2.88;85.42;98840.03;8545928;33;20156;-78
2021/12/27 20:15:10;;;;;;;19.85;12.00;;;;;;;2.91;85.40;98836.28;8542370;33;20140;-78
2021/12/27 20:20:15;;;;;;;22.33;12.57;;;;;;;3.05;85.31;98839.63;8546600;33;20443;-80
2021/12/27 20:25:19;;;;;;;21.13;11.93;;;;;;;3.03;84.78;98835.41;8541121;33;20508;-80
2021/12/27 20:30:22;;;;;;;20.95;11.35;;;;;;;3.01;85.07;98839.97;8539030;33;20149;-79
2021/12/27 20:35:27;;;;;;;20.52;12.02;;;;;;;2.97;85.06;98833.19;8540076;33;20502;-79
2021/12/27 20:40:31;;;;;;;20.33;11.27;;;;;;;2.90;85.69;98835.44;8537975;33;20460;-79
2021/12/27 20:45:35;;;;;;;22.35;12.18;;;;;;;2.94;85.30;98841.38;8515997;33;20512;-79
2021/12/27 20:50:40;;;;;;;20.10;11.88;;;;;;;2.96;84.96;98827.06;8539179;33;20526;-79
2021/12/27 20:55:43;;;;;;;22.13;12.25;;;;;;;2.92;84.79;98832.69;8548393;33;20438;-79
2021/12/27 21:00:51;;;;;;;22.80;12.85;;;;;;;2.94;85.45;98821.00;8554031;33;20484;-79
2021/12/27 21:05:55;;;;;;;24.58;12.88;;;;;;;2.91;85.52;98831.84;8555258;33;20152;-78
2021/12/27 21:10:58;;;;;;;23.25;12.63;;;;;;;3.11;85.09;98824.22;8553708;33;20590;-79
2021/12/27 21:16:01;;;;;;;23.02;13.20;;;;;;;3.09;85.56;98831.44;8535911;33;20553;-79
2021/12/27 21:21:07;;;;;;;27.75;13.95;;;;;;;3.15;85.22;98829.16;8559138;33;20148;-79
2021/12/27 21:26:10;;;;;;;26.60;13.95;;;;;;;3.18;84.78;98818.34;8554626;33;20235;-77
2021/12/27 21:31:13;;;;;;;27.23;14.63;;;;;;;3.22;84.94;98816.28;8543558;33;20191;-77
2021/12/27 21:36:19;;;;;;;25.30;14.00;;;;;;;3.29;84.65;98801.56;8543811;33;20152;-77
2021/12/27 21:41:23;;;;;;;25.45;14.70;;;;;;;3.35;84.03;98798.47;8544390;33;20521;-77
2021/12/27 21:46:30;;;;;;;25.02;13.80;;;;;;;3.27;84.32;98798.22;8536353;33;20149;-77
2021/12/27 21:51:35;;;;;;;26.08;14.00;;;;;;;3.18;84.49;98794.47;8528825;33;20188;-77
2021/12/27 21:56:38;;;;;;;26.55;14.23;;;;;;;3.17;84.52;98790.09;8540232;33;20202;-77
2021/12/27 22:01:41;;;;;;;26.42;13.85;;;;;;;3.10;84.55;98791.53;8528806;33;20824;-80
2021/12/27 22:06:46;;;;;;;24.83;12.95;;;;;;;3.06;84.69;98779.44;8527953;33;20566;-79
2021/12/27 22:11:49;;;;;;;24.80;14.77;;;;;;;3.09;85.00;98783.69;8535698;33;20550;-78
2021/12/27 22:17:07;;;;;;;25.05;13.88;;;;;;;2.95;85.06;98779.41;8537722;33;20141;-77
2021/12/27 22:22:11;;;;;;;24.45;13.73;;;;;;;3.02;84.64;98781.50;8538292;33;20180;-78
2021/12/27 22:27:14;;;;;;;24.92;14.52;;;;;;;2.96;84.50;98771.34;8550471;33;20510;-78
2021/12/27 22:32:18;;;;;;;21.98;13.35;;;;;;;2.91;84.69;98775.28;8555041;33;21066;-77
2021/12/27 22:37:22;;;;;;;25.02;13.65;;;;;;;2.90;84.84;98763.00;8550495;33;20235;-77
2021/12/27 22:42:25;;;;;;;25.13;13.63;;;;;;;2.91;84.81;98762.03;8531397;33;20553;-78
2021/12/27 22:47:28;;;;;;;24.60;13.35;;;;;;;2.93;84.89;98758.31;8527935;33;20544;-77
2021/12/27 22:52:33;;;;;;;22.83;13.48;;;;;;;3.03;85.06;98758.47;8525435;33;20556;-78
2021/12/27 22:57:36;;;;;;;30.17;13.52;;;;;;;3.15;85.67;98752.22;8525872;33;20129;-76
2021/12/27 23:02:39;;;;;;;25.50;13.73;;;;;;;3.31;85.19;98741.28;8524335;33;20256;-77
2021/12/27 23:07:43;;;;;;;27.90;14.05;;;;;;;3.32;85.18;98732.38;8525376;33;20184;-77
2021/12/27 23:12:47;;;;;;;27.75;14.88;;;;;;;3.35;86.01;98729.47;8526125;33;20448;-78
2021/12/27 23:17:50;;;;;;;23.23;12.95;;;;;;;3.61;85.59;98719.47;8528298;33;20180;-78
2021/12/27 23:22:55;;;;;;;26.00;14.00;;;;;;;3.82;85.22;98716.09;8526687;33;20144;-77
2021/12/27 23:28:05;;;;;;;23.70;12.88;;;;;;;3.95;85.50;98706.19;8525195;33;20467;-77
2021/12/27 23:33:14;;;;;;;24.27;12.75;;;;;;;4.00;84.41;98703.13;8525316;33;20562;-76
2021/12/27 23:38:22;;;;;;;22.15;11.73;;;;;;;3.84;84.93;98708.81;8526505;33;20455;-76
2021/12/27 23:43:25;;;;;;;19.63;10.77;;;;;;;3.93;85.21;98700.13;8524406;33;20222;-76
2021/12/27 23:48:29;;;;;;;18.90;11.23;;;;;;;3.88;85.14;98681.06;8526759;33;20351;-77
2021/12/27 23:53:33;;;;;;;20.15;10.52;;;;;;;3.90;85.01;98679.13;8494799;33;20716;-77
2021/12/27 23:58:36;;;;;;;22.35;11.70;;;;;;;3.76;84.37;98685.56;8520785;33;20519;-77
